Terminal Aerodrome Forecast
Issued by NWS

Home | Current Version | Previous Version | Text Only | Print | Product List | Glossary On
Versions: 1 2 3 4 5 6 7 8 9 10 11 12 13
483
FTUS46 KSEW 301120
TAFOLM
TAF
KOLM 301120Z 3012/3112 20007KT P6SM SCT013 SCT060
      TEMPO 3013/3017 BKN013
     FM301900 21008KT P6SM BKN060
     FM302200 24008KT P6SM SCT060
     FM310900 19006KT P6SM OVC015=

USA.gov is the U.S. government's official web portal to all federal, state and local government web resources and services.